Time;durP1;ratioP1;P1;durP2;ratioP2;P2;SDS_P1;SDS_P2;PMS_P1;PMS_P2;Temp;Humidity;BMP_temperature;BMP_pressure;BME280_temperature;BME280_humidity;BME280_pressure;Samples;Min_cycle;Max_cycle;Signal;HPM_P1;HPM_P2
2022/05/25 00:00:00;;;;;;;11.18;5.25;;;;;;;19.08;64.07;99963.56;5397131;32;34895;-72
2022/05/25 00:03:04;;;;;;;8.52;5.00;;;;;;;18.72;65.80;99956.69;5407391;32;36544;-70
2022/05/25 00:06:08;;;;;;;9.57;5.22;;;;;;;19.12;64.81;99954.31;5390875;32;34927;-69
2022/05/25 00:09:12;;;;;;;9.25;5.55;;;;;;;19.68;63.92;99952.34;5379090;32;34565;-69
2022/05/25 00:12:17;;;;;;;9.55;5.62;;;;;;;20.10;62.80;99951.53;5402356;32;34307;-71
2022/05/25 00:15:19;;;;;;;12.70;5.53;;;;;;;18.36;69.22;99945.31;5396181;32;45099;-70
2022/05/25 00:18:21;;;;;;;7.87;5.03;;;;;;;18.92;65.93;99946.13;5395382;32;34841;-71
2022/05/25 00:21:24;;;;;;;9.32;5.55;;;;;;;19.85;62.69;99932.25;5385003;32;34882;-70
2022/05/25 00:24:27;;;;;;;9.73;5.87;;;;;;;19.67;61.95;99942.66;5408262;32;34779;-71
2022/05/25 00:27:32;;;;;;;9.00;5.75;;;;;;;19.66;64.05;99958.78;5397498;32;35115;-70
2022/05/25 00:30:35;;;;;;;10.15;5.50;;;;;;;19.18;64.99;99953.81;5391103;32;35535;-71
2022/05/25 00:33:37;;;;;;;10.75;5.93;;;;;;;18.39;70.09;99950.38;5410333;32;34016;-70
2022/05/25 00:36:39;;;;;;;10.27;5.93;;;;;;;19.47;65.19;99962.94;5383971;32;34801;-70
2022/05/25 00:39:41;;;;;;;9.55;5.62;;;;;;;18.54;69.13;99959.81;5392332;32;35451;-71
2022/05/25 00:42:43;;;;;;;12.88;6.32;;;;;;;18.72;68.11;99951.38;5391982;32;35959;-70
2022/05/25 00:46:01;;;;;;;10.82;5.90;;;;;;;18.31;71.44;99944.81;5400774;32;45189;-68
2022/05/25 00:49:06;;;;;;;8.80;5.60;;;;;;;18.18;71.25;99944.09;5393741;32;35532;-70
2022/05/25 00:52:11;;;;;;;11.07;5.83;;;;;;;17.81;72.39;99937.12;5386120;32;34888;-68
2022/05/25 00:55:16;;;;;;;10.98;6.30;;;;;;;18.32;70.18;99946.50;5377349;32;34525;-70
2022/05/25 00:58:18;;;;;;;9.98;5.80;;;;;;;17.74;73.35;99956.31;5386759;32;45060;-69
2022/05/25 01:01:20;;;;;;;10.50;5.80;;;;;;;18.07;73.13;99955.53;5406893;32;34790;-70
2022/05/25 01:04:23;;;;;;;9.88;5.93;;;;;;;18.32;70.68;99955.34;5381488;32;37523;-72
2022/05/25 01:07:48;;;;;;;11.30;6.30;;;;;;;17.56;74.85;99958.50;5392879;32;34683;-69
2022/05/25 01:11:04;;;;;;;11.73;6.60;;;;;;;17.51;74.74;99966.81;5410587;32;47809;-69
2022/05/25 01:14:38;;;;;;;11.97;7.67;;;;;;;17.31;77.08;99975.41;5401435;32;34435;-68
2022/05/25 01:18:03;;;;;;;10.27;5.93;;;;;;;17.48;75.11;99987.44;5396035;32;35367;-69
2022/05/25 01:21:20;;;;;;;13.73;5.97;;;;;;;17.68;74.83;99989.47;5403246;32;34682;-70
2022/05/25 01:24:34;;;;;;;10.60;5.87;;;;;;;17.42;75.94;99988.75;5380501;32;47143;-68
2022/05/25 01:27:43;;;;;;;9.52;5.70;;;;;;;17.33;75.90;99986.78;5413382;32;34836;-68
2022/05/25 01:30:48;;;;;;;8.73;5.57;;;;;;;17.31;76.58;99986.88;5375421;32;45077;-70
2022/05/25 01:33:57;;;;;;;9.30;5.30;;;;;;;17.93;73.53;99987.66;5380541;32;35330;-70
2022/05/25 01:37:11;;;;;;;10.27;5.60;;;;;;;17.85;74.04;99980.28;5403721;32;34740;-70
2022/05/25 01:40:22;;;;;;;10.03;6.17;;;;;;;17.07;76.38;99988.69;5398553;32;34148;-70
2022/05/25 01:43:30;;;;;;;10.43;5.57;;;;;;;17.29;75.63;99978.19;5411564;32;36871;-70
2022/05/25 01:46:35;;;;;;;11.57;5.43;;;;;;;18.31;71.19;99985.56;5378748;32;34999;-72
2022/05/25 01:50:03;;;;;;;8.93;6.37;;;;;;;17.69;72.93;99988.50;5382577;32;34538;-71
2022/05/25 01:53:09;;;;;;;10.50;5.53;;;;;;;17.80;72.39;99987.75;5405609;32;35248;-70
2022/05/25 01:56:14;;;;;;;9.37;5.50;;;;;;;17.75;72.90;99989.88;5372489;32;34510;-70
2022/05/25 01:59:17;;;;;;;10.43;5.53;;;;;;;17.69;73.17;100001.78;5396001;32;45163;-70
2022/05/25 02:05:49;;;;;;;11.43;5.57;;;;;;;17.72;72.53;99988.31;5384037;32;35157;-70
2022/05/25 02:09:06;;;;;;;9.47;5.30;;;;;;;17.51;74.25;99989.88;5394667;32;44565;-70
2022/05/25 02:12:25;;;;;;;11.03;5.40;;;;;;;17.30;74.62;99981.69;5392818;32;34278;-68
2022/05/25 02:15:58;;;;;;;10.77;5.80;;;;;;;17.51;73.66;99971.28;5412680;32;34940;-67
2022/05/25 02:19:21;;;;;;;10.15;5.87;;;;;;;17.51;73.47;99979.25;5411113;32;35355;-69
2022/05/25 02:22:37;;;;;;;9.30;5.70;;;;;;;17.53;72.67;99986.16;5383360;32;43214;-69
2022/05/25 02:25:44;;;;;;;12.47;5.40;;;;;;;18.18;70.98;99974.19;5394964;32;34626;-69
2022/05/25 02:28:56;;;;;;;10.07;5.97;;;;;;;17.54;72.61;99976.38;5393579;32;44898;-71
2022/05/25 02:32:08;;;;;;;12.67;6.17;;;;;;;17.38;73.16;99970.47;5381973;32;34853;-70
2022/05/25 02:35:10;;;;;;;9.70;5.50;;;;;;;17.82;71.37;99968.03;5414354;32;34314;-70
2022/05/25 02:38:13;;;;;;;9.63;5.93;;;;;;;17.92;71.47;99970.03;5381407;32;34950;-69
2022/05/25 02:41:30;;;;;;;10.95;6.35;;;;;;;17.47;72.63;99973.31;5392621;32;44311;-67
2022/05/25 02:44:32;;;;;;;9.50;5.80;;;;;;;17.01;74.88;99973.19;5401498;32;35467;-68
2022/05/25 02:47:34;;;;;;;11.40;6.03;;;;;;;17.59;73.69;99964.44;5384132;32;34748;-70
2022/05/25 02:50:37;;;;;;;10.15;5.45;;;;;;;17.45;73.17;99961.09;5372490;32;34739;-68
2022/05/25 02:53:39;;;;;;;9.50;5.70;;;;;;;17.66;72.07;99964.84;5399355;32;34131;-69
2022/05/25 02:56:41;;;;;;;12.53;6.00;;;;;;;17.43;72.94;99963.87;5386580;32;34078;-71
2022/05/25 02:59:43;;;;;;;11.63;6.63;;;;;;;17.09;75.20;99973.47;5400371;32;37092;-70
2022/05/25 03:02:45;;;;;;;11.27;5.65;;;;;;;17.73;72.22;99970.56;5414449;32;47906;-70
2022/05/25 03:05:48;;;;;;;9.02;5.37;;;;;;;17.14;73.89;99966.03;5393995;32;34940;-69
2022/05/25 03:08:50;;;;;;;10.88;6.00;;;;;;;17.34;73.86;99967.22;5405578;32;34786;-69
2022/05/25 03:11:53;;;;;;;11.60;6.20;;;;;;;17.04;75.97;99965.84;5401326;32;33806;-69
2022/05/25 03:14:55;;;;;;;9.60;5.95;;;;;;;17.04;75.44;99979.13;5399532;32;34752;-68
2022/05/25 03:17:57;;;;;;;10.17;6.00;;;;;;;16.70;77.46;99986.00;5397967;32;35002;-70
2022/05/25 03:20:59;;;;;;;10.77;6.43;;;;;;;16.85;77.42;99978.75;5400338;32;35026;-69
2022/05/25 03:24:01;;;;;;;12.47;6.53;;;;;;;16.53;79.40;99968.56;5414931;32;35363;-69
2022/05/25 03:27:04;;;;;;;10.67;6.30;;;;;;;16.81;78.99;99968.44;5380689;32;35619;-69
2022/05/25 03:30:08;;;;;;;12.77;5.93;;;;;;;16.92;79.04;99973.84;5385803;32;33786;-70
2022/05/25 03:33:11;;;;;;;11.80;6.30;;;;;;;16.86;77.53;99984.91;5416356;32;34211;-69
2022/05/25 03:36:13;;;;;;;10.30;6.47;;;;;;;16.81;77.99;99989.69;5394388;32;34737;-70
2022/05/25 03:39:15;;;;;;;10.23;5.97;;;;;;;16.86;78.41;99993.69;5416016;32;44497;-69
2022/05/25 03:42:18;;;;;;;9.90;6.18;;;;;;;16.97;76.94;99990.28;5385686;32;34821;-68
2022/05/25 03:45:20;;;;;;;11.53;5.97;;;;;;;17.35;74.77;99991.97;5413053;32;35318;-70
2022/05/25 03:48:23;;;;;;;12.02;6.30;;;;;;;17.13;76.41;99996.22;5395479;32;34133;-68
2022/05/25 03:51:25;;;;;;;11.35;5.45;;;;;;;17.52;74.52;100003.06;5380752;32;34630;-69
2022/05/25 03:54:27;;;;;;;9.80;5.53;;;;;;;17.66;72.24;100006.50;5400410;32;35638;-69
2022/05/25 03:57:29;;;;;;;9.73;5.20;;;;;;;17.47;74.50;100009.69;5383432;32;34802;-70
2022/05/25 04:00:32;;;;;;;10.97;5.57;;;;;;;17.87;72.08;100011.09;5411361;32;34678;-70
2022/05/25 04:03:35;;;;;;;8.73;5.37;;;;;;;18.06;71.13;100010.53;5395458;32;35410;-70
2022/05/25 04:06:37;;;;;;;11.23;5.70;;;;;;;18.50;69.34;100008.09;5391685;32;34650;-68
2022/05/25 04:09:39;;;;;;;8.07;5.07;;;;;;;18.73;68.23;100017.78;5400429;32;34617;-70
2022/05/25 04:12:43;;;;;;;8.70;4.93;;;;;;;18.27;69.52;100023.16;5387049;32;34229;-70
2022/05/25 04:15:45;;;;;;;10.07;4.77;;;;;;;17.91;70.09;100014.38;5402036;32;44085;-69
2022/05/25 04:18:47;;;;;;;8.65;5.22;;;;;;;18.06;68.61;100015.00;5399554;32;34241;-68
2022/05/25 04:21:49;;;;;;;12.00;4.77;;;;;;;17.75;70.61;100012.00;5415429;32;34876;-69
2022/05/25 04:24:51;;;;;;;10.03;5.43;;;;;;;17.64;71.32;100013.72;5396757;32;34975;-69
2022/05/25 04:27:56;;;;;;;9.60;5.12;;;;;;;17.17;72.39;100008.28;5392246;32;34229;-70
2022/05/25 04:30:59;;;;;;;12.03;5.13;;;;;;;17.18;72.50;100028.56;5391519;32;34826;-69
2022/05/25 04:34:01;;;;;;;13.05;5.20;;;;;;;18.40;67.93;100023.91;5369461;32;34580;-69
2022/05/25 04:40:33;;;;;;;10.63;4.87;;;;;;;17.77;69.32;100020.69;5378906;32;45109;-69
2022/05/25 04:43:35;;;;;;;9.67;4.93;;;;;;;17.82;69.64;100023.87;5415477;32;35784;-71
2022/05/25 04:46:37;;;;;;;10.20;5.32;;;;;;;18.10;68.67;100011.16;5390696;32;34754;-71
2022/05/25 04:49:44;;;;;;;12.98;6.25;;;;;;;18.78;65.83;100010.28;5384888;32;35350;-68
2022/05/25 04:52:47;;;;;;;10.47;4.67;;;;;;;18.58;66.04;100001.19;5398177;32;44577;-70
2022/05/25 04:59:11;;;;;;;10.48;4.75;;;;;;;18.61;65.97;100008.94;5417132;32;36843;-69
2022/05/25 05:02:13;;;;;;;8.32;4.43;;;;;;;17.77;68.41;100022.50;5390531;32;35181;-71
2022/05/25 05:05:17;;;;;;;9.60;5.37;;;;;;;18.52;65.83;100016.78;5392398;32;44440;-68
2022/05/25 05:08:20;;;;;;;9.13;5.00;;;;;;;19.14;63.32;100019.84;5399978;32;34918;-71
2022/05/25 05:11:22;;;;;;;12.27;5.45;;;;;;;18.60;65.18;100028.53;5391163;32;34688;-71
2022/05/25 05:14:24;;;;;;;11.27;5.57;;;;;;;19.12;63.23;100026.25;5418028;32;35189;-70
2022/05/25 05:17:26;;;;;;;7.50;4.60;;;;;;;18.98;63.87;100024.69;5394756;32;35355;-71
2022/05/25 05:20:29;;;;;;;12.00;5.47;;;;;;;18.62;64.81;100021.28;5417302;32;34255;-70
2022/05/25 05:23:31;;;;;;;9.23;5.43;;;;;;;19.21;62.65;100037.03;5400544;32;34784;-68
2022/05/25 05:26:34;;;;;;;10.43;5.70;;;;;;;20.16;59.39;100031.03;5401618;32;34859;-74
2022/05/25 05:29:36;;;;;;;7.25;4.45;;;;;;;20.31;58.69;100026.22;5393788;32;35366;-72
2022/05/25 05:32:38;;;;;;;8.45;5.22;;;;;;;20.62;57.80;100029.78;5392709;32;34760;-72
2022/05/25 05:35:42;;;;;;;16.08;4.60;;;;;;;20.78;56.06;100036.31;5412789;32;35118;-71
2022/05/25 05:38:54;;;;;;;9.70;4.70;;;;;;;21.98;52.77;100047.03;5399301;32;34471;-68
2022/05/25 05:41:59;;;;;;;10.60;4.33;;;;;;;21.45;53.69;100052.78;5415742;32;34167;-67
2022/05/25 05:45:04;;;;;;;8.10;4.68;;;;;;;22.12;51.91;100049.31;5399287;32;35270;-68
2022/05/25 05:48:13;;;;;;;7.22;3.75;;;;;;;22.78;50.25;100061.84;5398650;32;33695;-71
2022/05/25 05:51:15;;;;;;;9.25;4.10;;;;;;;22.46;50.07;100059.53;5407570;32;46376;-70
2022/05/25 05:54:18;;;;;;;13.93;4.75;;;;;;;20.97;53.96;100066.78;5393440;32;34112;-71
2022/05/25 05:57:20;;;;;;;8.18;4.55;;;;;;;21.63;53.20;100069.81;5373599;32;34219;-75
2022/05/25 06:00:22;;;;;;;7.95;4.93;;;;;;;21.35;53.26;100076.78;5367437;32;35684;-74
2022/05/25 06:03:25;;;;;;;12.15;5.45;;;;;;;20.73;54.79;100078.59;5408657;32;34497;-72
2022/05/25 06:06:27;;;;;;;7.87;4.97;;;;;;;20.55;55.70;100078.38;5378478;32;36974;-73
2022/05/25 06:09:29;;;;;;;8.57;4.72;;;;;;;21.47;53.68;100082.88;5384995;32;33723;-71
2022/05/25 06:12:32;;;;;;;9.80;4.65;;;;;;;21.42;52.39;100077.94;5409118;32;35605;-72
2022/05/25 06:22:18;;;;;;;8.05;4.25;;;;;;;23.36;47.74;100077.72;5393060;32;46983;-71
2022/05/25 06:25:21;;;;;;;8.70;4.47;;;;;;;23.27;47.02;100081.31;5400782;32;34066;-70
2022/05/25 06:28:23;;;;;;;7.93;4.00;;;;;;;23.63;46.03;100077.72;5407704;32;35388;-72
2022/05/25 06:31:27;;;;;;;6.97;3.92;;;;;;;23.60;46.40;100071.78;5385813;32;36955;-71
2022/05/25 06:34:30;;;;;;;11.73;4.40;;;;;;;23.68;45.91;100070.06;5416279;32;34229;-69
2022/05/25 06:37:32;;;;;;;11.07;5.70;;;;;;;25.78;41.48;100070.78;5394912;32;35248;-70
2022/05/25 06:40:34;;;;;;;8.50;4.35;;;;;;;24.69;44.28;100072.47;5414803;32;35285;-68
2022/05/25 06:43:36;;;;;;;10.02;4.40;;;;;;;24.56;44.46;100078.25;5401319;32;36176;-68
2022/05/25 06:46:38;;;;;;;7.82;3.80;;;;;;;24.89;43.58;100067.69;5399534;32;34135;-77
2022/05/25 06:49:41;;;;;;;7.72;4.37;;;;;;;26.00;41.10;100065.75;5414090;32;32154;-73
2022/05/25 06:52:42;;;;;;;;;;;;;;;26.27;40.17;100060.03;5383648;32;33802;-72
2022/05/25 06:55:46;;;;;;;8.90;3.90;;;;;;;25.71;41.50;100068.88;5397364;32;44517;-70
2022/05/25 06:58:48;;;;;;;9.80;4.37;;;;;;;25.17;42.76;100061.13;5391974;32;37241;-72
2022/05/25 07:01:50;;;;;;;6.80;3.72;;;;;;;25.61;41.84;100058.25;5407833;32;33941;-75
2022/05/25 07:04:53;;;;;;;8.18;4.00;;;;;;;25.93;40.46;100055.66;5395231;32;34002;-73
2022/05/25 07:07:55;;;;;;;6.60;3.50;;;;;;;27.77;37.11;100051.16;5402500;32;35688;-68
2022/05/25 07:11:00;;;;;;;6.25;2.65;;;;;;;27.99;36.13;100053.03;5407745;32;35474;-72
2022/05/25 07:14:03;;;;;;;6.25;3.03;;;;;;;29.57;32.19;100036.69;5391049;32;34241;-75
2022/05/25 07:17:06;;;;;;;8.45;3.30;;;;;;;29.64;31.86;100041.13;5412002;32;34176;-68
2022/05/25 07:20:09;;;;;;;10.05;2.92;;;;;;;28.64;34.64;100048.06;5390561;32;34434;-68
2022/05/25 07:23:12;;;;;;;6.03;3.00;;;;;;;27.94;35.29;100065.38;5401071;32;34055;-69
2022/05/25 07:26:15;;;;;;;9.68;2.80;;;;;;;29.67;32.08;100054.28;5398699;32;259717;-77
2022/05/25 07:29:17;;;;;;;5.45;2.85;;;;;;;29.39;33.24;100047.88;5393113;32;34125;-67
2022/05/25 07:32:22;;;;;;;6.45;3.17;;;;;;;28.59;34.53;100057.56;5390241;32;35555;-68
2022/05/25 07:35:24;;;;;;;4.55;2.70;;;;;;;30.97;30.74;100040.34;5388206;32;34688;-70
2022/05/25 07:38:28;;;;;;;7.75;2.80;;;;;;;31.88;29.05;100033.81;5408388;32;34201;-69
2022/05/25 07:41:35;;;;;;;5.60;3.25;;;;;;;30.46;31.34;100037.94;5377484;32;33957;-72
2022/05/25 07:44:41;;;;;;;5.30;3.35;;;;;;;30.13;32.33;100044.94;5380825;32;34134;-71
2022/05/25 07:47:43;;;;;;;4.87;3.30;;;;;;;30.60;31.45;100048.88;5399789;32;33165;-73
2022/05/25 07:50:46;;;;;;;7.62;4.12;;;;;;;29.30;33.43;100040.87;5386394;32;44644;-78
2022/05/25 07:53:56;;;;;;;5.87;3.00;;;;;;;26.69;39.11;100048.22;5400817;32;35269;-70
2022/05/25 07:56:59;;;;;;;6.70;3.37;;;;;;;30.51;32.10;100037.31;5378562;32;35326;-78
2022/05/25 08:00:02;;;;;;;6.18;3.25;;;;;;;30.91;31.47;100043.03;5416356;32;35398;-68
2022/05/25 08:06:26;;;;;;;5.78;3.22;;;;;;;30.90;31.69;100044.91;5398395;32;34350;-75
2022/05/25 08:09:30;;;;;;;5.93;3.22;;;;;;;30.53;31.75;100064.25;5413418;32;34173;-71
2022/05/25 08:12:35;;;;;;;7.65;3.90;;;;;;;31.35;30.83;100047.25;5395987;32;34066;-72
2022/05/25 08:15:42;;;;;;;9.00;3.70;;;;;;;31.75;30.43;100054.47;5397616;32;34093;-71
2022/05/25 08:18:45;;;;;;;7.30;4.15;;;;;;;30.92;31.39;100053.72;5404990;32;43403;-68
2022/05/25 08:21:48;;;;;;;6.45;3.37;;;;;;;30.25;33.13;100054.22;5389854;32;35204;-78
2022/05/25 08:24:50;;;;;;;8.75;4.18;;;;;;;31.58;30.96;100052.34;5415804;32;36083;-70
2022/05/25 08:27:52;;;;;;;6.80;4.03;;;;;;;29.83;33.98;100053.19;5378047;32;35542;-80
2022/05/25 08:30:55;;;;;;;10.55;4.05;;;;;;;30.46;32.65;100047.91;5405230;32;34057;-80
2022/05/25 08:33:57;;;;;;;6.12;3.80;;;;;;;30.77;32.28;100044.84;5404542;32;34158;-79
2022/05/25 08:36:59;;;;;;;10.95;4.30;;;;;;;33.19;28.35;100040.19;5407256;32;35437;-76
2022/05/25 08:40:03;;;;;;;8.07;4.25;;;;;;;32.80;28.72;100041.97;5390665;32;35861;-70
2022/05/25 08:43:20;;;;;;;7.93;4.45;;;;;;;30.43;33.18;100041.03;5400637;32;36204;-72
2022/05/25 08:46:24;;;;;;;9.10;4.55;;;;;;;32.37;30.00;100038.06;5397804;32;43428;-71
2022/05/25 08:49:30;;;;;;;8.38;4.47;;;;;;;33.08;28.68;100030.81;5385544;32;34090;-70
2022/05/25 08:52:34;;;;;;;7.20;4.32;;;;;;;31.45;31.69;100042.28;5411308;32;35652;-75
2022/05/25 08:55:58;;;;;;;6.65;4.22;;;;;;;32.27;29.89;100028.44;5370469;32;32338;-77
2022/05/25 08:59:10;;;;;;;12.55;4.75;;;;;;;32.87;29.08;100029.22;5403814;32;34325;-82
2022/05/25 09:02:25;;;;;;;8.13;4.70;;;;;;;32.45;29.77;100032.41;5397077;32;34147;-72
2022/05/25 09:05:32;;;;;;;7.97;4.70;;;;;;;32.25;30.78;100035.94;5399655;32;34189;-69
2022/05/25 09:08:53;;;;;;;10.65;5.22;;;;;;;31.73;30.55;100040.25;5417795;32;35304;-75
2022/05/25 09:11:58;;;;;;;11.48;5.25;;;;;;;29.93;34.19;100036.59;5387237;32;35520;-76
2022/05/25 09:15:08;;;;;;;8.27;4.32;;;;;;;31.32;31.97;100034.09;5400825;32;34479;-74
2022/05/25 09:18:13;;;;;;;8.30;4.68;;;;;;;30.13;34.45;100042.25;5412121;32;34157;-69
2022/05/25 09:21:20;;;;;;;7.70;4.62;;;;;;;31.65;31.36;100034.19;5392887;32;44689;-71
2022/05/25 09:24:24;;;;;;;9.52;5.60;;;;;;;33.30;28.52;100034.09;5412979;32;34095;-70
2022/05/25 09:27:33;;;;;;;8.02;4.70;;;;;;;32.01;30.41;100031.97;5377132;32;36015;-69
2022/05/25 09:30:40;;;;;;;10.02;4.90;;;;;;;31.16;32.37;100027.91;5374846;32;34485;-78
2022/05/25 09:34:03;;;;;;;9.73;5.03;;;;;;;31.35;32.02;100034.50;5400099;32;34117;-74
2022/05/25 09:37:12;;;;;;;8.27;5.00;;;;;;;31.78;31.32;100040.50;5400105;32;34125;-77
2022/05/25 09:40:24;;;;;;;8.13;5.30;;;;;;;34.51;26.93;100026.78;5394541;32;37514;-77
2022/05/25 09:43:26;;;;;;;8.05;4.43;;;;;;;30.91;32.79;100030.31;5402860;32;35610;-69
2022/05/25 09:46:40;;;;;;;10.93;6.07;;;;;;;33.55;28.63;100027.88;5391672;32;34051;-68
2022/05/25 09:49:47;;;;;;;9.05;5.07;;;;;;;31.99;30.89;100044.09;5414035;32;34152;-69
2022/05/25 09:52:50;;;;;;;9.80;5.25;;;;;;;33.00;29.82;100035.66;5386368;32;46038;-76
2022/05/25 09:56:06;;;;;;;8.25;4.87;;;;;;;34.14;28.09;100021.25;5382502;32;35458;-76
2022/05/25 09:59:20;;;;;;;6.55;4.12;;;;;;;34.42;27.29;100018.91;5401880;32;34247;-71
2022/05/25 10:02:48;;;;;;;7.32;4.85;;;;;;;35.81;25.68;100030.91;5402152;32;42950;-73
2022/05/25 10:05:59;;;;;;;7.47;4.87;;;;;;;35.01;26.27;100028.38;5398744;32;42478;-75
2022/05/25 10:09:23;;;;;;;7.37;4.85;;;;;;;34.68;27.56;100027.88;5404583;32;34266;-79
2022/05/25 10:12:29;;;;;;;9.32;5.03;;;;;;;33.07;30.05;100026.41;5414215;32;34030;-74
2022/05/25 10:15:35;;;;;;;9.05;4.78;;;;;;;34.66;27.50;100025.38;5398551;32;35319;-69
2022/05/25 10:18:42;;;;;;;8.77;4.50;;;;;;;33.86;29.08;100027.06;5399328;32;34858;-70
2022/05/25 10:21:55;;;;;;;10.68;4.85;;;;;;;34.11;28.51;100016.22;5381620;32;44684;-72
2022/05/25 10:25:04;;;;;;;10.60;5.40;;;;;;;35.46;26.13;100008.91;5387918;32;34161;-72
2022/05/25 10:28:29;;;;;;;8.23;4.93;;;;;;;35.95;25.71;100019.78;5411474;32;35439;-70
2022/05/25 10:38:39;;;;;;;14.57;5.68;;;;;;;33.03;30.04;100005.28;5345196;32;34894;-74
2022/05/25 10:41:43;;;;;;;10.02;5.12;;;;;;;35.05;27.33;100004.19;5384199;32;35823;-73
2022/05/25 10:45:11;;;;;;;8.65;4.85;;;;;;;35.13;26.97;100001.12;5400019;32;47124;-73
2022/05/25 10:48:25;;;;;;;11.38;5.25;;;;;;;33.90;28.59;99999.16;5398377;32;35895;-71
2022/05/25 10:52:18;;;;;;;7.68;4.70;;;;;;;36.77;25.00;100011.59;5384372;32;34287;-73
2022/05/25 10:55:24;;;;;;;13.88;6.30;;;;;;;36.96;24.61;100001.34;5363546;32;34548;-71
2022/05/25 10:59:02;;;;;;;8.77;4.82;;;;;;;36.80;24.73;100002.91;5394452;32;35355;-72
2022/05/25 11:02:12;;;;;;;10.10;5.10;;;;;;;36.00;25.98;100004.34;5395099;32;34353;-72
2022/05/25 11:05:33;;;;;;;7.67;5.03;;;;;;;36.02;25.86;99995.91;5412279;32;44265;-71
2022/05/25 11:09:06;;;;;;;7.10;4.20;;;;;;;35.94;25.76;100002.56;5403112;32;34161;-70
2022/05/25 11:12:35;;;;;;;11.93;5.25;;;;;;;35.61;26.28;99993.97;5400636;32;34201;-69
2022/05/25 11:15:48;;;;;;;10.65;5.70;;;;;;;32.18;31.75;100016.06;5406500;32;34041;-72
2022/05/25 11:19:34;;;;;;;8.93;5.30;;;;;;;33.47;29.71;100003.63;5399695;32;45291;-82
2022/05/25 11:22:39;;;;;;;7.07;4.65;;;;;;;33.57;29.69;100010.28;5377916;32;34781;-69
2022/05/25 11:26:03;;;;;;;7.10;5.03;;;;;;;33.40;30.07;100006.41;5410800;32;34100;-69
2022/05/25 11:29:37;;;;;;;12.93;6.05;;;;;;;34.48;28.36;100003.53;5397834;32;34332;-73
2022/05/25 11:33:16;;;;;;;13.35;5.60;;;;;;;35.33;26.95;100003.59;5399489;32;36509;-74
2022/05/25 11:36:49;;;;;;;8.82;4.87;;;;;;;34.45;28.22;100012.16;5406940;32;35875;-70
2022/05/25 11:40:26;;;;;;;6.93;4.40;;;;;;;34.69;28.03;100018.62;5400882;32;44524;-75
2022/05/25 11:43:38;;;;;;;8.15;5.15;;;;;;;34.39;27.39;100013.87;5388891;32;34855;-69
2022/05/25 11:46:46;;;;;;;9.13;4.70;;;;;;;35.28;26.16;100020.66;5410291;32;33949;-76
2022/05/25 11:50:20;;;;;;;6.93;4.40;;;;;;;36.98;23.42;100021.97;5395708;32;34205;-68
2022/05/25 11:53:28;;;;;;;7.53;4.53;;;;;;;36.30;24.33;100011.59;5406179;32;46782;-69
2022/05/25 11:57:09;;;;;;;10.25;5.55;;;;;;;32.50;31.16;100022.56;5373079;32;35882;-68
2022/05/25 12:00:29;;;;;;;9.18;4.62;;;;;;;30.61;34.66;100018.84;5389675;32;34436;-71
2022/05/25 12:03:56;;;;;;;7.10;4.63;;;;;;;33.75;29.80;100015.00;5409377;32;34105;-70
2022/05/25 12:07:36;;;;;;;9.38;5.15;;;;;;;34.00;29.35;100016.94;5403160;32;34266;-72
2022/05/25 12:10:47;;;;;;;11.15;4.95;;;;;;;32.61;31.65;100012.94;5398760;32;34310;-71
2022/05/25 12:14:14;;;;;;;9.65;5.57;;;;;;;28.96;38.56;100028.81;5400676;32;44029;-69
2022/05/25 12:17:28;;;;;;;11.32;5.55;;;;;;;29.97;37.15;100029.78;5373945;32;44689;-71
2022/05/25 12:20:38;;;;;;;9.88;5.47;;;;;;;30.17;37.14;100025.41;5400950;32;35225;-69
2022/05/25 12:23:45;;;;;;;9.52;5.20;;;;;;;28.43;40.62;100046.09;5414811;32;34116;-67
2022/05/25 12:26:47;;;;;;;9.30;5.78;;;;;;;28.85;40.14;100037.34;5400165;32;46512;-79
2022/05/25 12:30:03;;;;;;;9.02;5.53;;;;;;;28.06;42.11;100043.16;5413460;32;35238;-70
2022/05/25 12:33:07;;;;;;;11.63;5.90;;;;;;;28.43;41.00;100036.13;5387486;32;33987;-69
2022/05/25 12:36:10;;;;;;;10.38;6.25;;;;;;;26.78;44.85;100047.19;5390702;32;34414;-77
2022/05/25 12:39:12;;;;;;;14.80;10.52;;;;;;;26.92;44.84;100049.19;5409747;32;34271;-67
2022/05/25 12:42:23;;;;;;;10.63;5.97;;;;;;;26.82;45.31;100048.53;5378591;32;42969;-75
2022/05/25 12:48:58;;;;;;;9.77;6.10;;;;;;;27.72;42.97;100045.47;5395775;32;34222;-79
2022/05/25 12:52:00;;;;;;;11.55;6.10;;;;;;;26.24;45.76;100048.75;5405671;32;34338;-80
2022/05/25 12:55:07;;;;;;;10.25;6.07;;;;;;;26.66;44.87;100049.41;5385408;32;36679;-81
2022/05/25 12:58:09;;;;;;;10.32;5.65;;;;;;;25.68;47.54;100053.91;5393735;32;33688;-67
2022/05/25 13:01:14;;;;;;;18.10;6.57;;;;;;;27.07;44.51;100043.09;5414848;32;35314;-68
2022/05/25 13:04:43;;;;;;;10.68;5.87;;;;;;;27.40;43.75;100047.31;5401209;32;44446;-69
2022/05/25 13:07:46;;;;;;;11.57;6.30;;;;;;;27.09;43.60;100046.44;5405684;32;46089;-68
2022/05/25 13:10:49;;;;;;;16.65;7.12;;;;;;;27.67;42.69;100039.72;5397476;32;34464;-70
2022/05/25 13:13:52;;;;;;;12.07;6.70;;;;;;;25.88;46.50;100041.00;5405302;32;33397;-70
2022/05/25 13:16:59;;;;;;;9.65;6.32;;;;;;;26.47;45.19;100033.63;5388051;32;33957;-71
2022/05/25 13:20:06;;;;;;;14.18;6.40;;;;;;;26.82;43.88;100034.22;5381624;32;33123;-71
2022/05/25 13:23:09;;;;;;;13.35;6.75;;;;;;;26.31;45.24;100023.66;5391660;32;33920;-68
2022/05/25 13:26:12;;;;;;;10.75;6.80;;;;;;;27.18;43.07;100021.13;5401812;32;34627;-68
2022/05/25 13:29:36;;;;;;;9.30;6.20;;;;;;;27.01;43.38;100020.31;5387663;32;44205;-69
2022/05/25 13:32:49;;;;;;;10.30;6.12;;;;;;;27.86;41.77;100028.47;5383335;32;34440;-74
2022/05/25 13:35:58;;;;;;;10.63;5.87;;;;;;;27.87;41.38;100032.00;5403982;32;44529;-80
2022/05/25 13:39:05;;;;;;;13.52;6.10;;;;;;;28.11;40.73;100039.09;5385825;32;35578;-70
2022/05/25 13:42:14;;;;;;;9.00;6.18;;;;;;;28.25;40.40;100041.00;5402783;32;35265;-73
2022/05/25 13:45:26;;;;;;;11.85;7.07;;;;;;;27.33;42.68;100042.78;5385758;32;44333;-71
2022/05/25 13:48:28;;;;;;;9.25;6.70;;;;;;;27.40;42.63;100047.31;5416259;32;35512;-76
2022/05/25 13:51:30;;;;;;;;;;;;;;;27.77;42.07;100053.87;5380735;32;34166;-68
2022/05/25 13:54:35;;;;;;;11.32;7.07;;;;;;;27.22;42.91;100047.56;5398554;32;35488;-70
2022/05/25 13:57:51;;;;;;;10.20;6.70;;;;;;;27.27;42.91;100047.88;5374846;32;43237;-69
2022/05/25 14:01:04;;;;;;;12.25;7.93;;;;;;;27.71;41.83;100059.97;5392540;32;34424;-72
2022/05/25 14:04:09;;;;;;;9.82;6.95;;;;;;;26.50;44.22;100060.22;5411875;32;35421;-66
2022/05/25 14:07:30;;;;;;;10.05;7.30;;;;;;;26.50;44.53;100059.38;5393944;32;35206;-69
2022/05/25 14:13:54;;;;;;;11.02;7.18;;;;;;;24.97;48.19;100073.12;5400660;32;44675;-69
2022/05/25 14:16:58;;;;;;;13.68;7.03;;;;;;;26.09;45.62;100068.28;5401631;32;34092;-69
2022/05/25 14:20:03;;;;;;;10.30;7.65;;;;;;;25.59;46.00;100079.97;5402114;32;33891;-67
2022/05/25 14:23:07;;;;;;;14.80;10.48;;;;;;;24.96;47.73;100080.34;5394745;32;35356;-68
2022/05/25 14:26:09;;;;;;;14.48;7.68;;;;;;;25.41;46.56;100097.22;5395672;32;34226;-70
2022/05/25 14:29:13;;;;;;;13.90;7.25;;;;;;;25.24;47.03;100094.44;5392025;32;34095;-65
2022/05/25 14:32:22;;;;;;;10.07;8.02;;;;;;;25.44;46.46;100096.88;5388366;32;43908;-68
2022/05/25 14:35:24;;;;;;;9.98;7.62;;;;;;;26.17;44.66;100102.47;5398274;32;38513;-66
2022/05/25 14:38:29;;;;;;;;;;;;;;;26.69;43.41;100102.13;5397615;32;34706;-66
2022/05/25 14:42:09;;;;;;;11.30;7.72;;;;;;;26.13;43.96;100099.25;5407066;32;44906;-66
2022/05/25 14:45:14;;;;;;;11.98;7.87;;;;;;;24.87;46.67;100110.88;5399746;32;34225;-67
2022/05/25 14:48:24;;;;;;;11.05;7.15;;;;;;;25.52;45.46;100105.84;5410585;32;44475;-67
2022/05/25 14:51:29;;;;;;;13.43;6.78;;;;;;;25.14;46.01;100109.88;5405967;32;35779;-67
2022/05/25 14:54:31;;;;;;;10.52;6.55;;;;;;;24.93;46.80;100117.47;5367994;32;34245;-66
2022/05/25 14:57:33;;;;;;;8.80;6.28;;;;;;;25.30;45.28;100126.06;5398482;32;34076;-66
2022/05/25 15:00:43;;;;;;;13.95;6.60;;;;;;;26.25;43.18;100113.22;5393289;32;35694;-66
2022/05/25 15:03:57;;;;;;;11.05;6.05;;;;;;;26.06;43.16;100111.69;5394245;32;46247;-67
2022/05/25 15:07:01;;;;;;;11.20;6.95;;;;;;;25.66;44.27;100110.59;5399093;32;36164;-66